Time;durP1;ratioP1;P1;durP2;ratioP2;P2;SDS_P1;SDS_P2;PMS_P1;PMS_P2;Temp;Humidity;BMP_temperature;BMP_pressure;BME280_temperature;BME280_humidity;BME280_pressure;Samples;Min_cycle;Max_cycle;Signal;HPM_P1;HPM_P2
2024/03/24 00:01:00;;;;;;;16.23;3.90;;;;;;;;;;6184320;23;20235;-94
2024/03/24 00:03:25;;;;;;;21.58;3.20;;;;;;;;;;6159615;23;20246;-96
2024/03/24 00:05:51;;;;;;;28.48;3.15;;;;;;;;;;6159723;23;20005;-94
2024/03/24 00:08:16;;;;;;;14.83;3.40;;;;;;;;;;6159403;23;20001;-94
2024/03/24 00:10:41;;;;;;;13.40;2.93;;;;;;;;;;6159913;23;20231;-95
2024/03/24 00:13:06;;;;;;;14.07;2.53;;;;;;;;;;6159533;23;20215;-95
2024/03/24 00:15:31;;;;;;;23.70;4.38;;;;;;;;;;6159752;23;20029;-95
2024/03/24 00:17:57;;;;;;;24.20;3.10;;;;;;;;;;6159670;23;20004;-95
2024/03/24 00:20:22;;;;;;;21.45;4.15;;;;;;;;;;6159522;23;20227;-95
2024/03/24 00:22:47;;;;;;;19.07;2.73;;;;;;;;;;6159359;23;20000;-95
2024/03/24 00:25:12;;;;;;;21.00;5.60;;;;;;;;;;6185854;23;20247;-94
2024/03/24 00:27:37;;;;;;;18.38;3.00;;;;;;;;;;6159991;23;20028;-95
2024/03/24 00:30:03;;;;;;;11.93;2.77;;;;;;;;;;6159744;23;20001;-94
2024/03/24 00:32:28;;;;;;;16.70;2.70;;;;;;;;;;6160132;23;20227;-95
2024/03/24 00:34:53;;;;;;;16.90;2.90;;;;;;;;;;6159980;23;20031;-95
2024/03/24 00:37:19;;;;;;;17.53;3.00;;;;;;;;;;6160532;23;20250;-95
2024/03/24 00:39:44;;;;;;;21.95;2.83;;;;;;;;;;6160440;23;20554;-95
2024/03/24 00:42:10;;;;;;;26.05;3.65;;;;;;;;;;6160366;23;20001;-94
2024/03/24 00:44:35;;;;;;;18.30;2.80;;;;;;;;;;6161333;23;20325;-94
2024/03/24 00:47:00;;;;;;;17.85;2.75;;;;;;;;;;6160246;23;20709;-95
2024/03/24 00:49:25;;;;;;;15.53;2.50;;;;;;;;;;6159645;23;20322;-96
2024/03/24 00:51:51;;;;;;;11.90;2.75;;;;;;;;;;6159343;23;20728;-95
2024/03/24 00:54:16;;;;;;;14.18;2.83;;;;;;;;;;6159026;23;19997;-95
2024/03/24 00:56:41;;;;;;;17.80;2.63;;;;;;;;;;6158733;23;20011;-95
2024/03/24 00:59:06;;;;;;;15.75;3.17;;;;;;;;;;6159220;23;20258;-95
2024/03/24 01:01:31;;;;;;;12.18;2.20;;;;;;;;;;6158902;23;20009;-95
2024/03/24 01:03:57;;;;;;;11.23;3.05;;;;;;;;;;6159336;23;20375;-95
2024/03/24 01:06:22;;;;;;;17.42;3.28;;;;;;;;;;6159064;23;20014;-94
2024/03/24 01:08:47;;;;;;;14.32;2.38;;;;;;;;;;6158955;23;20001;-95
2024/03/24 01:11:13;;;;;;;12.90;3.03;;;;;;;;;;6159428;23;19997;-94
2024/03/24 01:13:38;;;;;;;12.48;2.33;;;;;;;;;;6158773;23;20297;-94
2024/03/24 01:16:04;;;;;;;9.32;2.20;;;;;;;;;;6158934;23;20005;-95
2024/03/24 01:18:30;;;;;;;16.30;3.38;;;;;;;;;;6183832;23;19993;-94
2024/03/24 01:20:56;;;;;;;16.77;2.83;;;;;;;;;;6158986;23;20001;-96
2024/03/24 01:23:21;;;;;;;15.95;2.67;;;;;;;;;;6159174;23;20013;-95
2024/03/24 01:25:46;;;;;;;12.45;2.92;;;;;;;;;;6159408;23;20084;-95
2024/03/24 01:28:12;;;;;;;19.65;2.70;;;;;;;;;;6161466;23;20008;-96
2024/03/24 01:30:37;;;;;;;10.68;2.03;;;;;;;;;;6161614;23;20432;-95
2024/03/24 01:33:02;;;;;;;16.33;2.33;;;;;;;;;;6160966;23;19993;-96
2024/03/24 01:35:27;;;;;;;13.40;3.08;;;;;;;;;;6161136;23;20055;-95
2024/03/24 01:37:53;;;;;;;16.05;2.85;;;;;;;;;;6160933;23;19997;-94
2024/03/24 01:40:18;;;;;;;10.23;2.08;;;;;;;;;;6161434;23;20001;-95
2024/03/24 01:42:43;;;;;;;16.67;2.45;;;;;;;;;;6161645;23;20442;-96
2024/03/24 01:45:09;;;;;;;9.97;2.13;;;;;;;;;;6161326;23;20012;-95
2024/03/24 01:47:35;;;;;;;12.32;2.80;;;;;;;;;;6161649;23;20226;-95
2024/03/24 01:50:00;;;;;;;9.98;2.15;;;;;;;;;;6161662;23;20016;-94
2024/03/24 01:52:25;;;;;;;9.48;2.40;;;;;;;;;;6186102;23;20001;-94
2024/03/24 01:54:51;;;;;;;15.20;3.35;;;;;;;;;;6186283;23;20084;-96
2024/03/24 01:57:16;;;;;;;15.25;2.53;;;;;;;;;;6186305;23;20047;-95
2024/03/24 01:59:41;;;;;;;13.63;2.63;;;;;;;;;;6161521;23;20348;-95
2024/03/24 02:02:07;;;;;;;18.42;3.22;;;;;;;;;;6161524;23;20343;-94
2024/03/24 02:04:32;;;;;;;15.75;2.60;;;;;;;;;;6185858;23;20081;-95
2024/03/24 02:06:59;;;;;;;17.55;3.65;;;;;;;;;;6185886;23;20063;-95
2024/03/24 02:09:24;;;;;;;9.02;2.17;;;;;;;;;;6185624;23;20091;-95
2024/03/24 02:11:50;;;;;;;12.40;2.40;;;;;;;;;;6186103;23;20001;-95
2024/03/24 02:14:15;;;;;;;12.40;2.72;;;;;;;;;;6185820;23;20001;-94
2024/03/24 02:16:40;;;;;;;15.38;2.70;;;;;;;;;;6185895;23;20004;-95
2024/03/24 02:19:05;;;;;;;13.82;3.22;;;;;;;;;;6186116;23;19997;-95
2024/03/24 02:21:31;;;;;;;11.82;2.90;;;;;;;;;;6184613;23;20028;-93
2024/03/24 02:23:56;;;;;;;6.53;2.40;;;;;;;;;;6185677;23;20084;-94
2024/03/24 02:26:21;;;;;;;10.68;2.80;;;;;;;;;;6185541;23;20131;-93
2024/03/24 02:28:46;;;;;;;13.13;3.08;;;;;;;;;;6185612;23;19993;-95
2024/03/24 02:31:12;;;;;;;10.85;2.40;;;;;;;;;;6185741;23;20080;-95
2024/03/24 02:33:37;;;;;;;13.50;3.13;;;;;;;;;;6185854;23;20005;-95
2024/03/24 02:36:03;;;;;;;12.57;2.35;;;;;;;;;;6185398;23;20004;-96
2024/03/24 02:38:28;;;;;;;10.60;2.80;;;;;;;;;;6185906;23;19997;-94
2024/03/24 02:40:54;;;;;;;6.53;2.53;;;;;;;;;;6186015;23;19993;-95
2024/03/24 02:43:19;;;;;;;10.52;2.10;;;;;;;;;;6185887;23;20001;-96
2024/03/24 02:45:44;;;;;;;11.93;2.55;;;;;;;;;;6185224;23;20005;-96
2024/03/24 02:48:09;;;;;;;14.43;2.95;;;;;;;;;;6185817;23;20491;-95
2024/03/24 02:50:35;;;;;;;12.45;2.90;;;;;;;;;;6185568;23;20001;-95
2024/03/24 02:53:01;;;;;;;12.70;2.80;;;;;;;;;;6185364;23;20332;-94
2024/03/24 02:55:26;;;;;;;11.95;2.88;;;;;;;;;;6185594;23;20004;-95
2024/03/24 02:57:52;;;;;;;17.45;3.08;;;;;;;;;;6185732;23;20009;-95
2024/03/24 03:00:17;;;;;;;12.00;3.38;;;;;;;;;;6185532;23;20032;-95
2024/03/24 03:02:43;;;;;;;12.98;3.00;;;;;;;;;;6160720;23;20001;-96
2024/03/24 03:05:08;;;;;;;19.75;3.20;;;;;;;;;;6160772;23;20013;-94
2024/03/24 03:07:33;;;;;;;12.93;3.33;;;;;;;;;;6160579;23;20027;-95
2024/03/24 03:09:59;;;;;;;13.77;3.20;;;;;;;;;;6160659;23;20024;-95
2024/03/24 03:12:24;;;;;;;10.38;3.28;;;;;;;;;;6161009;23;20004;-95
2024/03/24 03:14:49;;;;;;;14.45;2.67;;;;;;;;;;6160727;23;20428;-95
2024/03/24 03:17:14;;;;;;;15.68;3.05;;;;;;;;;;6160499;23;20424;-93
2024/03/24 03:19:40;;;;;;;9.82;3.33;;;;;;;;;;6160515;23;20084;-94
2024/03/24 03:22:05;;;;;;;13.30;3.03;;;;;;;;;;6160159;23;19997;-96
2024/03/24 03:24:30;;;;;;;10.30;3.05;;;;;;;;;;6160686;23;20016;-95
2024/03/24 03:26:55;;;;;;;14.45;3.65;;;;;;;;;;6160295;23;20051;-95
2024/03/24 03:29:21;;;;;;;11.48;3.45;;;;;;;;;;6160574;23;20008;-95
2024/03/24 03:31:47;;;;;;;10.23;3.03;;;;;;;;;;6160661;23;19997;-95
2024/03/24 03:34:12;;;;;;;10.00;2.80;;;;;;;;;;6160917;23;20008;-94
2024/03/24 03:36:37;;;;;;;16.40;4.97;;;;;;;;;;6160408;23;19993;-94
2024/03/24 03:39:04;;;;;;;12.27;3.33;;;;;;;;;;6160557;23;20088;-96
2024/03/24 03:41:30;;;;;;;14.68;3.55;;;;;;;;;;6160574;23;20367;-95
2024/03/24 03:43:55;;;;;;;12.32;4.28;;;;;;;;;;6160242;23;20024;-95
2024/03/24 03:46:20;;;;;;;13.23;2.80;;;;;;;;;;6160859;23;20029;-95
2024/03/24 03:48:48;;;;;;;12.93;3.40;;;;;;;;;;6160194;23;20001;-95
2024/03/24 03:51:29;;;;;;;17.38;3.80;;;;;;;;;;6160453;23;20416;-95
2024/03/24 03:53:57;;;;;;;13.63;3.42;;;;;;;;;;6160991;23;20007;-95
2024/03/24 03:56:22;;;;;;;14.40;3.80;;;;;;;;;;6160958;23;20163;-95
2024/03/24 03:58:47;;;;;;;21.77;6.65;;;;;;;;;;6160489;23;20163;-95
2024/03/24 04:01:13;;;;;;;13.40;3.40;;;;;;;;;;6160255;23;20013;-95
2024/03/24 04:03:38;;;;;;;11.00;3.25;;;;;;;;;;6159846;23;20009;-95
2024/03/24 04:06:03;;;;;;;12.93;3.35;;;;;;;;;;6160316;23;20052;-95
2024/03/24 04:08:29;;;;;;;12.05;3.58;;;;;;;;;;6185516;23;20004;-96
2024/03/24 04:10:54;;;;;;;12.70;3.10;;;;;;;;;;6185509;23;20001;-96
2024/03/24 04:13:19;;;;;;;11.75;3.25;;;;;;;;;;6160539;23;20012;-96
2024/03/24 04:15:45;;;;;;;15.35;3.25;;;;;;;;;;6160783;23;20323;-94
2024/03/24 04:18:10;;;;;;;14.52;2.92;;;;;;;;;;6160865;23;20001;-95
2024/03/24 04:20:36;;;;;;;16.50;3.60;;;;;;;;;;6160364;23;20084;-95
2024/03/24 04:23:01;;;;;;;11.00;2.95;;;;;;;;;;6185245;23;20051;-95
2024/03/24 04:25:26;;;;;;;12.27;3.38;;;;;;;;;;6160297;23;20016;-95
2024/03/24 04:27:51;;;;;;;14.57;3.75;;;;;;;;;;6160431;23;20001;-95
2024/03/24 04:30:17;;;;;;;15.27;2.88;;;;;;;;;;6160500;23;20313;-96
2024/03/24 04:32:42;;;;;;;13.02;3.63;;;;;;;;;;6160598;23;20005;-96
2024/03/24 04:35:08;;;;;;;15.93;4.78;;;;;;;;;;6160104;23;20372;-95
2024/03/24 04:37:34;;;;;;;16.40;3.47;;;;;;;;;;6185077;23;19993;-95
2024/03/24 04:39:59;;;;;;;14.93;3.83;;;;;;;;;;6184175;23;20020;-95
2024/03/24 04:42:24;;;;;;;15.32;3.50;;;;;;;;;;6160755;23;20015;-96
2024/03/24 04:44:50;;;;;;;15.07;3.17;;;;;;;;;;6160759;23;20059;-95
2024/03/24 04:47:16;;;;;;;13.65;4.47;;;;;;;;;;6160309;23;19997;-96
2024/03/24 04:49:41;;;;;;;15.38;4.97;;;;;;;;;;6160325;23;20047;-96
2024/03/24 04:52:06;;;;;;;23.27;4.00;;;;;;;;;;6160090;23;19997;-95
2024/03/24 04:54:31;;;;;;;13.82;3.25;;;;;;;;;;6160862;23;20005;-95
2024/03/24 04:56:57;;;;;;;13.10;3.35;;;;;;;;;;6159965;23;20434;-95
2024/03/24 04:59:22;;;;;;;15.27;3.72;;;;;;;;;;6160434;23;20012;-95
2024/03/24 05:01:47;;;;;;;14.85;3.78;;;;;;;;;;6160598;23;20020;-96
2024/03/24 05:04:14;;;;;;;14.63;3.63;;;;;;;;;;6161046;23;20428;-95
2024/03/24 05:06:40;;;;;;;15.35;4.43;;;;;;;;;;6161196;23;20001;-95
2024/03/24 05:09:05;;;;;;;22.42;3.67;;;;;;;;;;6160983;23;20001;-95
2024/03/24 05:11:30;;;;;;;11.38;3.70;;;;;;;;;;6161914;23;19993;-95
2024/03/24 05:13:56;;;;;;;11.77;3.40;;;;;;;;;;6162346;23;20001;-96
2024/03/24 05:16:21;;;;;;;20.52;5.03;;;;;;;;;;6161802;23;20336;-94
2024/03/24 05:18:47;;;;;;;24.13;4.38;;;;;;;;;;6162715;23;20012;-94
2024/03/24 05:21:12;;;;;;;19.30;4.07;;;;;;;;;;6162711;23;20467;-95
2024/03/24 05:23:37;;;;;;;14.27;3.75;;;;;;;;;;6160933;23;20439;-94
2024/03/24 05:26:04;;;;;;;15.10;3.83;;;;;;;;;;6161029;23;20001;-94
2024/03/24 05:28:29;;;;;;;15.93;4.70;;;;;;;;;;6160789;23;20230;-96
2024/03/24 05:30:54;;;;;;;15.27;4.72;;;;;;;;;;6159889;23;19994;-96
2024/03/24 05:33:19;;;;;;;18.50;4.38;;;;;;;;;;6160443;23;19997;-94
2024/03/24 05:35:45;;;;;;;14.10;3.70;;;;;;;;;;6159979;23;20332;-95
2024/03/24 05:38:11;;;;;;;18.98;4.45;;;;;;;;;;6184897;23;19997;-96
2024/03/24 05:40:36;;;;;;;16.75;4.10;;;;;;;;;;6184866;23;20005;-95
2024/03/24 05:43:01;;;;;;;13.10;3.70;;;;;;;;;;6160046;23;20080;-95
2024/03/24 05:45:26;;;;;;;16.63;4.00;;;;;;;;;;6160099;23;20016;-95
2024/03/24 05:47:52;;;;;;;22.73;4.95;;;;;;;;;;6160317;23;19993;-95
2024/03/24 05:50:17;;;;;;;15.07;4.03;;;;;;;;;;6160946;23;20004;-96
2024/03/24 05:52:42;;;;;;;16.40;5.10;;;;;;;;;;6159356;23;20435;-96
2024/03/24 05:55:08;;;;;;;22.30;4.95;;;;;;;;;;6159986;23;20001;-95
2024/03/24 05:57:34;;;;;;;20.83;4.63;;;;;;;;;;6184980;23;20004;-96
2024/03/24 05:59:59;;;;;;;13.20;3.78;;;;;;;;;;6185106;23;20421;-95
2024/03/24 06:02:27;;;;;;;11.65;3.22;;;;;;;;;;6185103;23;20494;-96
2024/03/24 06:04:55;;;;;;;18.13;3.88;;;;;;;;;;6185248;23;20009;-95
2024/03/24 06:07:21;;;;;;;12.48;4.28;;;;;;;;;;6184954;23;19989;-94
2024/03/24 06:09:46;;;;;;;15.10;4.72;;;;;;;;;;6185068;23;20001;-95
2024/03/24 06:12:12;;;;;;;14.23;3.47;;;;;;;;;;6185782;23;20001;-95
2024/03/24 06:14:37;;;;;;;17.10;4.30;;;;;;;;;;6186619;23;20021;-95
2024/03/24 06:17:03;;;;;;;19.30;4.50;;;;;;;;;;6186716;23;20024;-94
2024/03/24 06:19:28;;;;;;;21.45;3.60;;;;;;;;;;6186386;23;20032;-94
2024/03/24 06:21:54;;;;;;;13.35;3.75;;;;;;;;;;6186141;23;19997;-95
2024/03/24 06:24:19;;;;;;;14.23;3.47;;;;;;;;;;6186320;23;20005;-96
2024/03/24 06:26:44;;;;;;;19.90;3.63;;;;;;;;;;6185851;23;20039;-95
2024/03/24 06:29:10;;;;;;;12.50;3.60;;;;;;;;;;6185811;23;20052;-94
2024/03/24 06:31:36;;;;;;;21.83;3.63;;;;;;;;;;6185298;23;20420;-94
2024/03/24 06:34:03;;;;;;;16.65;3.40;;;;;;;;;;6185960;23;20008;-94
2024/03/24 06:36:28;;;;;;;14.93;4.30;;;;;;;;;;6185829;23;20035;-94
2024/03/24 06:38:54;;;;;;;18.98;4.35;;;;;;;;;;6186049;23;20001;-95
2024/03/24 06:41:19;;;;;;;12.23;3.40;;;;;;;;;;6186279;23;20001;-96
2024/03/24 06:43:44;;;;;;;17.23;4.03;;;;;;;;;;6185836;23;20457;-95
2024/03/24 06:46:10;;;;;;;13.02;3.28;;;;;;;;;;6185969;23;20135;-95
2024/03/24 06:48:35;;;;;;;19.67;4.07;;;;;;;;;;6186127;23;20004;-96
2024/03/24 06:51:00;;;;;;;18.13;4.35;;;;;;;;;;6186206;23;20031;-96
2024/03/24 06:53:26;;;;;;;21.15;5.72;;;;;;;;;;6185803;23;20001;-95
2024/03/24 06:55:51;;;;;;;18.55;3.95;;;;;;;;;;6185451;23;20008;-95
2024/03/24 06:58:17;;;;;;;15.25;4.28;;;;;;;;;;6185783;23;20068;-96
2024/03/24 07:00:43;;;;;;;19.38;3.67;;;;;;;;;;6185667;23;20503;-95
2024/03/24 07:03:08;;;;;;;12.60;3.58;;;;;;;;;;6161140;23;20000;-95
2024/03/24 07:05:34;;;;;;;10.65;3.55;;;;;;;;;;6160870;23;20009;-95
2024/03/24 07:07:59;;;;;;;18.50;4.28;;;;;;;;;;6161614;23;19993;-96
2024/03/24 07:10:24;;;;;;;13.18;3.22;;;;;;;;;;6160706;23;19997;-96
2024/03/24 07:12:49;;;;;;;13.13;3.97;;;;;;;;;;6160771;23;20084;-95
2024/03/24 07:15:15;;;;;;;11.15;3.80;;;;;;;;;;6160587;23;20076;-95
2024/03/24 07:17:40;;;;;;;12.02;3.28;;;;;;;;;;6161056;23;20049;-95
2024/03/24 07:20:07;;;;;;;15.65;5.78;;;;;;;;;;6160465;23;19997;-95
2024/03/24 07:22:32;;;;;;;14.40;3.45;;;;;;;;;;6185093;23;20001;-95
2024/03/24 07:24:58;;;;;;;10.68;3.35;;;;;;;;;;6160435;23;20444;-95
2024/03/24 07:27:23;;;;;;;7.50;3.08;;;;;;;;;;6161496;23;20032;-95
2024/03/24 07:29:48;;;;;;;9.07;3.00;;;;;;;;;;6161616;23;19997;-94
2024/03/24 07:32:14;;;;;;;11.18;3.83;;;;;;;;;;6161525;23;20001;-95
2024/03/24 07:34:40;;;;;;;12.27;3.25;;;;;;;;;;6161276;23;20021;-95
2024/03/24 07:37:05;;;;;;;18.58;5.05;;;;;;;;;;6161447;23;20048;-95
2024/03/24 07:39:30;;;;;;;12.77;3.40;;;;;;;;;;6161137;23;20328;-95
2024/03/24 07:41:56;;;;;;;13.13;3.75;;;;;;;;;;6160660;23;20024;-94
2024/03/24 07:44:21;;;;;;;14.43;3.42;;;;;;;;;;6159801;23;20088;-95
2024/03/24 07:46:46;;;;;;;12.93;3.55;;;;;;;;;;6160433;23;20001;-94
2024/03/24 07:49:12;;;;;;;20.95;3.40;;;;;;;;;;6160409;23;20551;-94
2024/03/24 07:51:37;;;;;;;16.27;2.88;;;;;;;;;;6160275;23;20420;-95
2024/03/24 07:54:03;;;;;;;4.78;2.38;;;;;;;;;;6159841;23;20004;-94
2024/03/24 07:56:28;;;;;;;17.30;3.08;;;;;;;;;;6184885;23;20360;-95
2024/03/24 07:58:53;;;;;;;19.13;3.30;;;;;;;;;;6160249;23;19997;-95
2024/03/24 08:01:18;;;;;;;15.50;3.77;;;;;;;;;;6160369;23;20302;-94
2024/03/24 08:03:44;;;;;;;16.15;2.97;;;;;;;;;;6159774;23;20326;-94
2024/03/24 08:06:09;;;;;;;16.03;2.77;;;;;;;;;;6159376;23;20466;-93
2024/03/24 08:08:34;;;;;;;15.70;2.73;;;;;;;;;;6159479;23;20681;-94
2024/03/24 08:10:59;;;;;;;9.53;2.53;;;;;;;;;;6159091;23;20238;-94
2024/03/24 08:13:24;;;;;;;17.47;3.03;;;;;;;;;;6159222;23;20229;-94
2024/03/24 08:15:50;;;;;;;12.25;2.63;;;;;;;;;;6159603;23;20310;-93
2024/03/24 08:18:15;;;;;;;11.55;2.97;;;;;;;;;;6159226;23;20059;-94
2024/03/24 08:20:44;;;;;;;8.10;2.57;;;;;;;;;;6159109;23;20001;-95
2024/03/24 08:23:09;;;;;;;15.27;2.70;;;;;;;;;;6184544;23;20311;-95
2024/03/24 08:25:34;;;;;;;11.52;2.15;;;;;;;;;;6159128;23;20067;-95
2024/03/24 08:28:00;;;;;;;15.88;3.33;;;;;;;;;;6184331;23;20008;-93
2024/03/24 08:30:25;;;;;;;10.40;2.70;;;;;;;;;;6158857;23;20070;-94
2024/03/24 08:32:50;;;;;;;13.43;2.50;;;;;;;;;;6158756;23;20748;-95
2024/03/24 08:35:15;;;;;;;10.00;1.63;;;;;;;;;;6158566;23;20510;-95
2024/03/24 08:37:41;;;;;;;8.18;2.45;;;;;;;;;;6158740;23;20219;-94
2024/03/24 08:40:06;;;;;;;9.13;1.73;;;;;;;;;;6160686;23;20324;-93
2024/03/24 08:42:31;;;;;;;10.68;2.15;;;;;;;;;;6184800;23;20000;-93
2024/03/24 08:44:56;;;;;;;11.27;2.40;;;;;;;;;;6158807;23;20067;-93
2024/03/24 08:47:22;;;;;;;7.47;1.88;;;;;;;;;;6159419;23;20223;-96
2024/03/24 08:49:47;;;;;;;11.52;2.20;;;;;;;;;;6159068;23;20001;-95
2024/03/24 08:52:12;;;;;;;7.47;2.20;;;;;;;;;;6159296;23;20451;-95
2024/03/24 08:54:37;;;;;;;9.27;2.33;;;;;;;;;;6185342;23;20293;-92
2024/03/24 08:57:03;;;;;;;10.70;2.13;;;;;;;;;;6158830;23;20223;-94
2024/03/24 08:59:28;;;;;;;5.65;2.05;;;;;;;;;;6159475;23;20227;-94
2024/03/24 09:01:53;;;;;;;8.87;1.60;;;;;;;;;;6158827;23;20080;-95
2024/03/24 09:04:18;;;;;;;12.43;2.03;;;;;;;;;;6158903;23;20306;-95
2024/03/24 09:06:44;;;;;;;8.13;1.95;;;;;;;;;;6185065;23;20557;-95
2024/03/24 09:09:09;;;;;;;6.57;1.77;;;;;;;;;;6158574;23;20054;-94
2024/03/24 09:11:34;;;;;;;8.13;1.67;;;;;;;;;;6183667;23;20225;-94
2024/03/24 09:13:59;;;;;;;9.65;2.35;;;;;;;;;;6158919;23;20087;-95
2024/03/24 09:16:25;;;;;;;6.20;1.80;;;;;;;;;;6158514;23;20009;-95
2024/03/24 09:18:50;;;;;;;7.97;1.77;;;;;;;;;;6158962;23;20234;-95
2024/03/24 09:21:15;;;;;;;9.45;2.10;;;;;;;;;;6159529;23;20254;-94
2024/03/24 09:23:40;;;;;;;8.17;1.70;;;;;;;;;;6159084;23;20001;-95
2024/03/24 09:26:06;;;;;;;8.52;1.63;;;;;;;;;;6159224;23;20292;-95
2024/03/24 09:28:31;;;;;;;14.90;2.10;;;;;;;;;;6159282;23;20100;-95
2024/03/24 09:31:01;;;;;;;10.57;1.77;;;;;;;;;;6158860;23;20734;-96
2024/03/24 09:33:27;;;;;;;6.30;1.77;;;;;;;;;;6183758;23;20223;-96
2024/03/24 09:35:53;;;;;;;5.97;1.73;;;;;;;;;;6187424;23;20008;-94
2024/03/24 09:38:18;;;;;;;9.25;2.08;;;;;;;;;;6189120;23;20009;-95
2024/03/24 09:40:43;;;;;;;5.95;1.65;;;;;;;;;;6163914;23;20005;-94
2024/03/24 09:43:08;;;;;;;8.43;1.98;;;;;;;;;;6166028;23;20019;-94
2024/03/24 09:45:34;;;;;;;6.43;1.77;;;;;;;;;;6167862;23;20009;-95
2024/03/24 09:48:01;;;;;;;8.57;2.13;;;;;;;;;;6190390;23;19997;-95
2024/03/24 09:50:28;;;;;;;9.63;2.00;;;;;;;;;;6192022;23;20083;-95
2024/03/24 09:52:54;;;;;;;8.13;2.05;;;;;;;;;;6186267;23;20436;-95
2024/03/24 09:55:22;;;;;;;13.13;3.00;;;;;;;;;;6186540;23;20023;-95
2024/03/24 09:57:47;;;;;;;8.93;1.95;;;;;;;;;;6185765;23;19997;-95
2024/03/24 10:00:13;;;;;;;7.32;1.95;;;;;;;;;;6160486;23;20016;-95
2024/03/24 10:02:39;;;;;;;8.07;2.10;;;;;;;;;;6185899;23;20001;-96
2024/03/24 10:05:05;;;;;;;7.18;1.40;;;;;;;;;;6185837;23;20013;-95
2024/03/24 10:07:30;;;;;;;7.32;1.88;;;;;;;;;;6161077;23;20020;-95
2024/03/24 10:09:55;;;;;;;10.00;1.83;;;;;;;;;;6160497;23;20008;-95
2024/03/24 10:12:20;;;;;;;12.47;1.60;;;;;;;;;;6160539;23;20215;-95
2024/03/24 10:14:46;;;;;;;8.57;1.85;;;;;;;;;;6185632;23;20235;-95
2024/03/24 10:17:14;;;;;;;11.57;1.83;;;;;;;;;;6160594;23;19998;-95
2024/03/24 10:19:39;;;;;;;9.82;1.85;;;;;;;;;;6185468;23;20059;-96
2024/03/24 10:22:04;;;;;;;8.27;1.75;;;;;;;;;;6161104;23;20025;-94
2024/03/24 10:24:30;;;;;;;15.60;1.97;;;;;;;;;;6160624;23;20009;-95
2024/03/24 10:26:58;;;;;;;8.15;1.77;;;;;;;;;;6161001;23;20219;-95
2024/03/24 10:29:24;;;;;;;7.93;2.00;;;;;;;;;;6186130;23;20032;-96
2024/03/24 10:31:49;;;;;;;8.18;2.47;;;;;;;;;;6161118;23;20306;-95
2024/03/24 10:34:14;;;;;;;7.25;1.73;;;;;;;;;;6160719;23;20087;-95
2024/03/24 10:36:39;;;;;;;8.25;1.63;;;;;;;;;;6187244;23;19997;-95
2024/03/24 10:39:08;;;;;;;8.23;1.80;;;;;;;;;;6160967;23;20434;-95
2024/03/24 10:41:34;;;;;;;7.57;1.60;;;;;;;;;;6185818;23;20227;-95
2024/03/24 10:44:00;;;;;;;12.23;1.40;;;;;;;;;;6185636;23;20015;-96
2024/03/24 10:46:26;;;;;;;7.28;1.38;;;;;;;;;;6185543;23;19998;-95
2024/03/24 10:48:51;;;;;;;8.93;2.70;;;;;;;;;;6160504;23;20004;-95
2024/03/24 10:51:20;;;;;;;7.25;1.48;;;;;;;;;;6185762;23;20004;-96
2024/03/24 10:53:46;;;;;;;5.05;1.15;;;;;;;;;;6185819;23;20012;-95
2024/03/24 10:56:12;;;;;;;5.60;1.10;;;;;;;;;;6185570;23;20027;-95
2024/03/24 10:58:37;;;;;;;4.32;0.93;;;;;;;;;;6185821;23;20424;-95
2024/03/24 11:01:03;;;;;;;4.13;1.00;;;;;;;;;;6185762;23;20313;-95
2024/03/24 11:03:28;;;;;;;4.97;1.10;;;;;;;;;;6185189;23;20112;-96
2024/03/24 11:05:54;;;;;;;6.45;1.20;;;;;;;;;;6161030;23;20012;-96
2024/03/24 11:08:20;;;;;;;6.35;1.27;;;;;;;;;;6160727;23;19993;-95
2024/03/24 11:10:49;;;;;;;9.50;1.50;;;;;;;;;;6185202;23;20009;-95
2024/03/24 11:13:16;;;;;;;5.32;1.38;;;;;;;;;;6161001;23;20404;-95
2024/03/24 11:15:42;;;;;;;6.53;2.55;;;;;;;;;;6185669;23;20001;-95
2024/03/24 11:18:20;;;;;;;5.13;0.98;;;;;;;;;;6161079;23;20001;-95
2024/03/24 11:20:45;;;;;;;4.70;1.55;;;;;;;;;;6185719;23;20011;-95
2024/03/24 11:23:21;;;;;;;9.05;1.58;;;;;;;;;;6161020;23;19997;-94
2024/03/24 11:26:05;;;;;;;3.47;1.00;;;;;;;;;;6185680;23;20087;-94
2024/03/24 11:28:42;;;;;;;6.47;1.00;;;;;;;;;;6185160;23;19993;-95
2024/03/24 11:31:19;;;;;;;3.30;0.90;;;;;;;;;;6185151;23;20005;-95
2024/03/24 11:33:57;;;;;;;3.88;0.77;;;;;;;;;;6185510;23;20001;-95
2024/03/24 11:36:23;;;;;;;8.07;1.20;;;;;;;;;;6160056;23;20351;-95
2024/03/24 11:38:48;;;;;;;5.70;1.10;;;;;;;;;;6185247;23;20079;-95
2024/03/24 11:41:14;;;;;;;8.48;1.83;;;;;;;;;;6162312;23;20085;-95
2024/03/24 11:43:40;;;;;;;5.80;1.42;;;;;;;;;;6185402;23;20030;-95
2024/03/24 11:46:07;;;;;;;6.63;1.35;;;;;;;;;;6160292;23;20064;-95
2024/03/24 11:48:33;;;;;;;4.97;1.15;;;;;;;;;;6187623;23;20051;-95
2024/03/24 11:51:01;;;;;;;8.10;1.48;;;;;;;;;;6160053;23;20001;-96
2024/03/24 11:53:27;;;;;;;10.82;1.60;;;;;;;;;;6184791;23;20089;-96
2024/03/24 11:55:52;;;;;;;4.07;1.23;;;;;;;;;;6159964;23;20016;-96
2024/03/24 11:58:18;;;;;;;7.03;1.00;;;;;;;;;;6160005;23;20057;-94
2024/03/24 12:00:44;;;;;;;4.18;1.00;;;;;;;;;;6186463;23;20032;-95
2024/03/24 12:03:09;;;;;;;4.88;1.15;;;;;;;;;;6186440;23;19992;-96
2024/03/24 12:05:34;;;;;;;5.10;1.00;;;;;;;;;;6185404;23;20053;-95
2024/03/24 12:07:59;;;;;;;4.65;0.98;;;;;;;;;;6185206;23;20551;-95
2024/03/24 12:10:25;;;;;;;4.90;1.05;;;;;;;;;;6184281;23;20005;-94
2024/03/24 12:12:51;;;;;;;5.90;1.20;;;;;;;;;;6184167;23;20424;-94
2024/03/24 12:15:17;;;;;;;4.72;0.95;;;;;;;;;;6184122;23;20227;-95
2024/03/24 12:17:42;;;;;;;4.05;0.63;;;;;;;;;;6184128;23;20011;-94
2024/03/24 12:20:10;;;;;;;5.83;0.87;;;;;;;;;;6184220;23;20439;-95
2024/03/24 12:22:37;;;;;;;5.25;0.90;;;;;;;;;;6184346;23;20219;-94
2024/03/24 12:25:02;;;;;;;3.13;0.95;;;;;;;;;;6184029;23;20486;-95
2024/03/24 12:27:27;;;;;;;5.75;0.95;;;;;;;;;;6183832;23;20032;-95
2024/03/24 12:29:55;;;;;;;2.57;0.80;;;;;;;;;;6183758;23;20080;-94
2024/03/24 12:32:23;;;;;;;4.53;1.08;;;;;;;;;;6184376;23;20836;-95
2024/03/24 12:34:50;;;;;;;12.55;2.53;;;;;;;;;;6183907;23;20004;-93
2024/03/24 12:37:15;;;;;;;5.18;1.23;;;;;;;;;;6183541;23;20008;-94
2024/03/24 12:39:40;;;;;;;9.80;1.45;;;;;;;;;;6183854;23;20076;-94
2024/03/24 12:42:13;;;;;;;8.00;2.10;;;;;;;;;;6183715;23;20004;-95
2024/03/24 12:44:38;;;;;;;6.72;1.70;;;;;;;;;;6183570;23;20255;-95
2024/03/24 12:47:16;;;;;;;10.65;2.22;;;;;;;;;;6185215;23;20143;-95
2024/03/24 12:49:41;;;;;;;6.63;1.65;;;;;;;;;;6183725;23;20324;-95
2024/03/24 12:52:06;;;;;;;9.57;2.40;;;;;;;;;;6183777;23;20080;-95
2024/03/24 12:54:32;;;;;;;6.23;1.40;;;;;;;;;;6183520;23;20379;-95
2024/03/24 12:56:57;;;;;;;7.90;1.48;;;;;;;;;;6183584;23;20527;-95
2024/03/24 12:59:23;;;;;;;8.20;1.52;;;;;;;;;;6183646;23;19997;-95
2024/03/24 13:01:48;;;;;;;10.07;1.52;;;;;;;;;;6183647;23;20012;-95
2024/03/24 13:04:15;;;;;;;9.32;2.22;;;;;;;;;;6159064;23;20084;-95
2024/03/24 13:06:42;;;;;;;7.65;1.70;;;;;;;;;;6183538;23;20028;-94
2024/03/24 13:09:07;;;;;;;4.68;1.17;;;;;;;;;;6183405;23;20001;-94
2024/03/24 13:11:33;;;;;;;6.60;1.15;;;;;;;;;;6161137;23;20076;-94
2024/03/24 13:13:58;;;;;;;8.60;1.73;;;;;;;;;;6185127;23;19997;-95
2024/03/24 13:16:27;;;;;;;19.30;7.85;;;;;;;;;;6159091;23;20005;-94
2024/03/24 13:19:08;;;;;;;6.90;2.33;;;;;;;;;;6183672;23;20424;-94
2024/03/24 13:21:39;;;;;;;14.27;4.05;;;;;;;;;;6158463;23;20009;-94
2024/03/24 13:24:05;;;;;;;4.30;1.20;;;;;;;;;;6185156;23;20005;-95
2024/03/24 13:26:32;;;;;;;2.15;0.93;;;;;;;;;;6183597;23;20082;-95
2024/03/24 13:28:57;;;;;;;3.50;0.90;;;;;;;;;;6184176;23;20336;-95
2024/03/24 13:31:22;;;;;;;3.03;1.00;;;;;;;;;;6159109;23;20012;-94
2024/03/24 13:33:48;;;;;;;7.35;1.60;;;;;;;;;;6159339;23;20230;-94
2024/03/24 13:36:36;;;;;;;7.03;1.63;;;;;;;;;;6159183;23;19997;-94
2024/03/24 13:39:05;;;;;;;9.43;1.95;;;;;;;;;;6182007;23;20005;-95
2024/03/24 13:41:49;;;;;;;11.30;1.88;;;;;;;;;;6183829;23;20019;-95
2024/03/24 13:44:32;;;;;;;8.23;1.50;;;;;;;;;;6185678;23;20004;-94
2024/03/24 13:47:16;;;;;;;8.82;1.65;;;;;;;;;;6184011;23;20008;-94
2024/03/24 13:49:42;;;;;;;14.15;2.28;;;;;;;;;;6184603;23;20005;-95
2024/03/24 13:52:08;;;;;;;8.87;1.90;;;;;;;;;;6158931;23;20423;-95
2024/03/24 13:54:35;;;;;;;8.77;2.15;;;;;;;;;;6183698;23;20223;-95
2024/03/24 13:57:00;;;;;;;5.85;1.33;;;;;;;;;;6183625;23;20013;-94
2024/03/24 13:59:25;;;;;;;10.43;2.00;;;;;;;;;;6161131;23;20471;-94
2024/03/24 14:01:51;;;;;;;6.53;1.52;;;;;;;;;;6191022;23;20067;-94
2024/03/24 14:04:16;;;;;;;14.35;2.35;;;;;;;;;;6189704;23;20507;-93
2024/03/24 14:06:41;;;;;;;5.17;1.20;;;;;;;;;;6189307;23;20055;-94
2024/03/24 14:09:09;;;;;;;9.23;2.20;;;;;;;;;;6195527;23;20252;-94
2024/03/24 14:11:34;;;;;;;6.90;2.88;;;;;;;;;;6197448;23;20011;-93
2024/03/24 14:14:19;;;;;;;13.63;2.25;;;;;;;;;;6195566;23;20017;-95
2024/03/24 14:16:58;;;;;;;11.73;2.05;;;;;;;;;;6187006;23;20009;-95
2024/03/24 14:19:36;;;;;;;9.77;2.08;;;;;;;;;;6186621;23;20324;-96
2024/03/24 14:22:15;;;;;;;7.30;2.22;;;;;;;;;;6185163;23;20001;-94
2024/03/24 14:24:59;;;;;;;11.43;2.05;;;;;;;;;;6184923;23;20009;-94
2024/03/24 14:27:24;;;;;;;7.78;1.98;;;;;;;;;;6185948;23;20001;-95
2024/03/24 14:29:49;;;;;;;9.65;2.55;;;;;;;;;;6185393;23;20024;-94